sensor_id;sensor_type;location;lat;lon;timestamp;temperature;humidity
13806;DHT22;6974;53.606;9.872;2022-12-29T00:00:13;9.20;99.90
13806;DHT22;6974;53.606;9.872;2022-12-29T00:02:39;9.20;99.90
13806;DHT22;6974;53.606;9.872;2022-12-29T00:05:07;9.20;99.90
13806;DHT22;6974;53.606;9.872;2022-12-29T00:07:35;9.20;99.90
13806;DHT22;6974;53.606;9.872;2022-12-29T00:10:02;9.30;99.90
13806;DHT22;6974;53.606;9.872;2022-12-29T00:12:29;9.20;99.90
13806;DHT22;6974;53.606;9.872;2022-12-29T00:15:16;9.20;99.90
13806;DHT22;6974;53.606;9.872;2022-12-29T00:18:00;9.30;99.90
13806;DHT22;6974;53.606;9.872;2022-12-29T00:20:27;9.30;99.90
13806;DHT22;6974;53.606;9.872;2022-12-29T00:23:12;9.40;99.90
13806;DHT22;6974;53.606;9.872;2022-12-29T00:25:57;9.40;99.90
13806;DHT22;6974;53.606;9.872;2022-12-29T00:28:41;9.40;99.90
13806;DHT22;6974;53.606;9.872;2022-12-29T00:31:25;9.40;99.90
13806;DHT22;6974;53.606;9.872;2022-12-29T00:34:11;9.40;99.90
13806;DHT22;6974;53.606;9.872;2022-12-29T00:36:55;9.40;99.90
13806;DHT22;6974;53.606;9.872;2022-12-29T00:39:24;9.50;99.90
13806;DHT22;6974;53.606;9.872;2022-12-29T00:42:09;9.50;99.90
13806;DHT22;6974;53.606;9.872;2022-12-29T00:44:53;9.40;99.90
13806;DHT22;6974;53.606;9.872;2022-12-29T00:47:20;9.50;99.90
13806;DHT22;6974;53.606;9.872;2022-12-29T00:49:47;9.50;99.90
13806;DHT22;6974;53.606;9.872;2022-12-29T00:52:13;9.60;99.90
13806;DHT22;6974;53.606;9.872;2022-12-29T00:54:42;9.60;99.90
13806;DHT22;6974;53.606;9.872;2022-12-29T00:57:11;9.60;99.90
13806;DHT22;6974;53.606;9.872;2022-12-29T00:59:39;9.70;99.90
13806;DHT22;6974;53.606;9.872;2022-12-29T01:02:07;9.70;99.90
13806;DHT22;6974;53.606;9.872;2022-12-29T01:04:35;9.60;99.90
13806;DHT22;6974;53.606;9.872;2022-12-29T01:07:01;9.60;99.90
13806;DHT22;6974;53.606;9.872;2022-12-29T01:09:28;9.70;99.90
13806;DHT22;6974;53.606;9.872;2022-12-29T01:12:14;9.60;99.90
13806;DHT22;6974;53.606;9.872;2022-12-29T01:14:41;9.70;99.90
13806;DHT22;6974;53.606;9.872;2022-12-29T01:17:08;9.70;99.90
13806;DHT22;6974;53.606;9.872;2022-12-29T01:19:34;9.70;99.90
13806;DHT22;6974;53.606;9.872;2022-12-29T01:22:02;9.70;99.90
13806;DHT22;6974;53.606;9.872;2022-12-29T01:24:29;9.70;99.90
13806;DHT22;6974;53.606;9.872;2022-12-29T01:26:56;9.80;99.90
13806;DHT22;6974;53.606;9.872;2022-12-29T01:29:24;9.80;99.90
13806;DHT22;6974;53.606;9.872;2022-12-29T01:31:53;9.80;99.90
13806;DHT22;6974;53.606;9.872;2022-12-29T01:34:20;9.80;99.90
13806;DHT22;6974;53.606;9.872;2022-12-29T01:36:47;9.80;99.90
13806;DHT22;6974;53.606;9.872;2022-12-29T01:39:14;9.80;99.90
13806;DHT22;6974;53.606;9.872;2022-12-29T01:41:41;9.90;99.90
13806;DHT22;6974;53.606;9.872;2022-12-29T01:47:35;9.90;99.90
13806;DHT22;6974;53.606;9.872;2022-12-29T01:50:08;9.80;99.90
13806;DHT22;6974;53.606;9.872;2022-12-29T01:52:42;9.90;99.90
13806;DHT22;6974;53.606;9.872;2022-12-29T01:55:12;9.80;99.90
13806;DHT22;6974;53.606;9.872;2022-12-29T01:57:44;9.80;99.90
13806;DHT22;6974;53.606;9.872;2022-12-29T02:00:13;9.90;99.90
13806;DHT22;6974;53.606;9.872;2022-12-29T02:02:46;9.90;99.90
13806;DHT22;6974;53.606;9.872;2022-12-29T02:05:18;9.90;99.90
13806;DHT22;6974;53.606;9.872;2022-12-29T02:07:48;9.90;99.90
13806;DHT22;6974;53.606;9.872;2022-12-29T02:10:16;9.90;99.90
13806;DHT22;6974;53.606;9.872;2022-12-29T02:12:45;9.90;99.90
13806;DHT22;6974;53.606;9.872;2022-12-29T02:15:14;9.90;99.90
13806;DHT22;6974;53.606;9.872;2022-12-29T02:18:07;9.90;99.90
13806;DHT22;6974;53.606;9.872;2022-12-29T02:27:06;9.90;99.90
13806;DHT22;6974;53.606;9.872;2022-12-29T02:30:04;9.90;99.90
13806;DHT22;6974;53.606;9.872;2022-12-29T02:32:38;10.00;99.90
13806;DHT22;6974;53.606;9.872;2022-12-29T02:35:15;10.00;99.90
13806;DHT22;6974;53.606;9.872;2022-12-29T02:37:53;10.00;99.90
13806;DHT22;6974;53.606;9.872;2022-12-29T02:40:31;10.00;99.90
13806;DHT22;6974;53.606;9.872;2022-12-29T02:43:08;10.00;99.90
13806;DHT22;6974;53.606;9.872;2022-12-29T02:45:45;10.10;99.90
13806;DHT22;6974;53.606;9.872;2022-12-29T02:48:19;10.00;99.90
13806;DHT22;6974;53.606;9.872;2022-12-29T02:50:52;10.10;99.90
13806;DHT22;6974;53.606;9.872;2022-12-29T02:53:20;10.10;99.90
13806;DHT22;6974;53.606;9.872;2022-12-29T02:56:08;10.10;99.90
13806;DHT22;6974;53.606;9.872;2022-12-29T02:58:34;10.10;99.90
13806;DHT22;6974;53.606;9.872;2022-12-29T03:01:16;10.10;99.90
13806;DHT22;6974;53.606;9.872;2022-12-29T03:04:01;10.20;99.90
13806;DHT22;6974;53.606;9.872;2022-12-29T03:06:40;10.20;99.90
13806;DHT22;6974;53.606;9.872;2022-12-29T03:09:32;10.20;99.90
13806;DHT22;6974;53.606;9.872;2022-12-29T03:12:08;10.20;99.90
13806;DHT22;6974;53.606;9.872;2022-12-29T03:14:49;10.30;99.90
13806;DHT22;6974;53.606;9.872;2022-12-29T03:17:42;10.30;99.90
13806;DHT22;6974;53.606;9.872;2022-12-29T03:20:18;10.30;99.90
13806;DHT22;6974;53.606;9.872;2022-12-29T03:22:48;10.30;99.90
13806;DHT22;6974;53.606;9.872;2022-12-29T03:25:18;10.30;99.90
13806;DHT22;6974;53.606;9.872;2022-12-29T03:27:49;10.30;99.90
13806;DHT22;6974;53.606;9.872;2022-12-29T03:30:18;10.40;99.90
13806;DHT22;6974;53.606;9.872;2022-12-29T03:32:49;10.40;99.90
13806;DHT22;6974;53.606;9.872;2022-12-29T03:35:21;10.40;99.90
13806;DHT22;6974;53.606;9.872;2022-12-29T03:37:55;10.40;99.90
13806;DHT22;6974;53.606;9.872;2022-12-29T03:40:26;10.40;99.90
13806;DHT22;6974;53.606;9.872;2022-12-29T03:42:54;10.40;99.90
13806;DHT22;6974;53.606;9.872;2022-12-29T03:45:22;10.50;99.90
13806;DHT22;6974;53.606;9.872;2022-12-29T03:47:50;10.50;99.90
13806;DHT22;6974;53.606;9.872;2022-12-29T03:50:19;10.50;99.90
13806;DHT22;6974;53.606;9.872;2022-12-29T03:52:46;10.50;99.90
13806;DHT22;6974;53.606;9.872;2022-12-29T03:55:14;10.60;99.90
13806;DHT22;6974;53.606;9.872;2022-12-29T03:57:41;10.60;99.90
13806;DHT22;6974;53.606;9.872;2022-12-29T04:00:09;10.60;99.90
13806;DHT22;6974;53.606;9.872;2022-12-29T04:02:36;10.60;99.90
13806;DHT22;6974;53.606;9.872;2022-12-29T04:05:04;10.60;99.90
13806;DHT22;6974;53.606;9.872;2022-12-29T04:07:33;10.60;99.90
13806;DHT22;6974;53.606;9.872;2022-12-29T04:10:00;10.60;99.90
13806;DHT22;6974;53.606;9.872;2022-12-29T04:12:27;10.60;99.90
13806;DHT22;6974;53.606;9.872;2022-12-29T04:14:54;10.70;99.90
13806;DHT22;6974;53.606;9.872;2022-12-29T04:17:22;10.70;99.90
13806;DHT22;6974;53.606;9.872;2022-12-29T04:19:50;10.70;99.90
13806;DHT22;6974;53.606;9.872;2022-12-29T04:22:38;10.70;99.90
13806;DHT22;6974;53.606;9.872;2022-12-29T04:25:07;10.70;99.90
13806;DHT22;6974;53.606;9.872;2022-12-29T04:27:34;10.80;99.90
13806;DHT22;6974;53.606;9.872;2022-12-29T04:30:02;10.80;99.90
13806;DHT22;6974;53.606;9.872;2022-12-29T04:32:29;10.70;99.90
13806;DHT22;6974;53.606;9.872;2022-12-29T04:34:56;10.80;99.90
13806;DHT22;6974;53.606;9.872;2022-12-29T04:37:23;10.80;99.90
13806;DHT22;6974;53.606;9.872;2022-12-29T04:39:52;10.80;99.90
13806;DHT22;6974;53.606;9.872;2022-12-29T04:42:19;10.80;99.90
13806;DHT22;6974;53.606;9.872;2022-12-29T04:44:46;10.80;99.90
13806;DHT22;6974;53.606;9.872;2022-12-29T04:47:14;10.90;99.90
13806;DHT22;6974;53.606;9.872;2022-12-29T04:49:41;10.90;99.90
13806;DHT22;6974;53.606;9.872;2022-12-29T04:52:09;10.80;99.90
13806;DHT22;6974;53.606;9.872;2022-12-29T04:54:36;10.90;99.90
13806;DHT22;6974;53.606;9.872;2022-12-29T04:57:05;10.90;99.90
13806;DHT22;6974;53.606;9.872;2022-12-29T04:59:32;10.80;99.90
13806;DHT22;6974;53.606;9.872;2022-12-29T05:01:59;10.80;99.90
13806;DHT22;6974;53.606;9.872;2022-12-29T05:04:26;10.80;99.90
13806;DHT22;6974;53.606;9.872;2022-12-29T05:06:54;10.80;99.90
13806;DHT22;6974;53.606;9.872;2022-12-29T05:09:21;10.70;99.90
13806;DHT22;6974;53.606;9.872;2022-12-29T05:11:49;10.70;99.90
13806;DHT22;6974;53.606;9.872;2022-12-29T05:14:18;10.70;99.90
13806;DHT22;6974;53.606;9.872;2022-12-29T05:16:45;10.70;99.90
13806;DHT22;6974;53.606;9.872;2022-12-29T05:19:12;10.70;99.90
13806;DHT22;6974;53.606;9.872;2022-12-29T05:21:39;10.70;99.90
13806;DHT22;6974;53.606;9.872;2022-12-29T05:24:07;10.70;99.90
13806;DHT22;6974;53.606;9.872;2022-12-29T05:26:35;10.70;99.90
13806;DHT22;6974;53.606;9.872;2022-12-29T05:29:02;10.70;99.90
13806;DHT22;6974;53.606;9.872;2022-12-29T05:31:31;10.70;99.90
13806;DHT22;6974;53.606;9.872;2022-12-29T05:33:58;10.80;99.90
13806;DHT22;6974;53.606;9.872;2022-12-29T05:36:26;10.70;99.90
13806;DHT22;6974;53.606;9.872;2022-12-29T05:38:53;10.70;99.90
13806;DHT22;6974;53.606;9.872;2022-12-29T05:41:20;10.70;99.90
13806;DHT22;6974;53.606;9.872;2022-12-29T05:43:47;10.80;99.90
13806;DHT22;6974;53.606;9.872;2022-12-29T05:46:14;10.80;99.90
13806;DHT22;6974;53.606;9.872;2022-12-29T05:48:43;10.80;99.90
13806;DHT22;6974;53.606;9.872;2022-12-29T05:51:10;10.90;99.90
13806;DHT22;6974;53.606;9.872;2022-12-29T05:53:37;10.80;99.90
13806;DHT22;6974;53.606;9.872;2022-12-29T05:56:05;10.90;99.90
13806;DHT22;6974;53.606;9.872;2022-12-29T05:58:32;10.90;99.90
13806;DHT22;6974;53.606;9.872;2022-12-29T06:00:59;10.90;99.90
13806;DHT22;6974;53.606;9.872;2022-12-29T06:03:27;11.00;99.90
13806;DHT22;6974;53.606;9.872;2022-12-29T06:05:55;10.90;99.90
13806;DHT22;6974;53.606;9.872;2022-12-29T06:08:22;10.90;99.90
13806;DHT22;6974;53.606;9.872;2022-12-29T06:10:50;11.00;99.90
13806;DHT22;6974;53.606;9.872;2022-12-29T06:13:17;10.90;99.90
13806;DHT22;6974;53.606;9.872;2022-12-29T06:15:44;10.90;99.90
13806;DHT22;6974;53.606;9.872;2022-12-29T06:18:11;11.00;99.90
13806;DHT22;6974;53.606;9.872;2022-12-29T06:20:38;11.00;99.90
13806;DHT22;6974;53.606;9.872;2022-12-29T06:23:07;11.00;99.90
13806;DHT22;6974;53.606;9.872;2022-12-29T06:25:35;11.00;99.90
13806;DHT22;6974;53.606;9.872;2022-12-29T06:28:02;10.90;99.90
13806;DHT22;6974;53.606;9.872;2022-12-29T06:30:30;10.90;99.90
13806;DHT22;6974;53.606;9.872;2022-12-29T06:32:59;10.90;99.90
13806;DHT22;6974;53.606;9.872;2022-12-29T06:35:27;10.90;99.90
13806;DHT22;6974;53.606;9.872;2022-12-29T06:37:54;11.00;99.90
13806;DHT22;6974;53.606;9.872;2022-12-29T06:40:22;11.00;99.90
13806;DHT22;6974;53.606;9.872;2022-12-29T06:42:50;11.00;99.90
13806;DHT22;6974;53.606;9.872;2022-12-29T06:45:17;11.00;99.90
13806;DHT22;6974;53.606;9.872;2022-12-29T06:47:44;11.00;99.90
13806;DHT22;6974;53.606;9.872;2022-12-29T06:50:11;10.90;99.90
13806;DHT22;6974;53.606;9.872;2022-12-29T06:52:38;11.00;99.90
13806;DHT22;6974;53.606;9.872;2022-12-29T06:55:06;10.90;99.90
13806;DHT22;6974;53.606;9.872;2022-12-29T06:57:34;10.90;99.90
13806;DHT22;6974;53.606;9.872;2022-12-29T07:00:02;10.90;99.90
13806;DHT22;6974;53.606;9.872;2022-12-29T07:02:30;10.90;99.90
13806;DHT22;6974;53.606;9.872;2022-12-29T07:04:57;10.90;99.90
13806;DHT22;6974;53.606;9.872;2022-12-29T07:07:24;10.90;99.90
13806;DHT22;6974;53.606;9.872;2022-12-29T07:09:52;10.90;99.90
13806;DHT22;6974;53.606;9.872;2022-12-29T07:12:19;10.80;99.90
13806;DHT22;6974;53.606;9.872;2022-12-29T07:14:47;10.80;99.90
13806;DHT22;6974;53.606;9.872;2022-12-29T07:17:14;10.90;99.90
13806;DHT22;6974;53.606;9.872;2022-12-29T07:19:41;10.90;99.90
13806;DHT22;6974;53.606;9.872;2022-12-29T07:22:09;10.90;99.90
13806;DHT22;6974;53.606;9.872;2022-12-29T07:24:37;10.80;99.90
13806;DHT22;6974;53.606;9.872;2022-12-29T07:27:04;10.80;99.90
13806;DHT22;6974;53.606;9.872;2022-12-29T07:29:33;10.80;99.90
13806;DHT22;6974;53.606;9.872;2022-12-29T07:32:01;10.90;99.90
13806;DHT22;6974;53.606;9.872;2022-12-29T07:34:28;10.90;99.90
13806;DHT22;6974;53.606;9.872;2022-12-29T07:36:56;11.00;99.90
13806;DHT22;6974;53.606;9.872;2022-12-29T07:39:23;10.90;99.90
13806;DHT22;6974;53.606;9.872;2022-12-29T07:41:50;10.90;99.90
13806;DHT22;6974;53.606;9.872;2022-12-29T07:44:17;10.90;99.90
13806;DHT22;6974;53.606;9.872;2022-12-29T07:46:44;11.00;99.90
13806;DHT22;6974;53.606;9.872;2022-12-29T07:49:12;11.00;99.90
13806;DHT22;6974;53.606;9.872;2022-12-29T07:51:40;10.90;99.90
13806;DHT22;6974;53.606;9.872;2022-12-29T07:54:08;11.00;99.90
13806;DHT22;6974;53.606;9.872;2022-12-29T07:56:35;10.90;99.90
13806;DHT22;6974;53.606;9.872;2022-12-29T07:59:04;10.90;99.90
13806;DHT22;6974;53.606;9.872;2022-12-29T08:01:31;11.00;99.90
13806;DHT22;6974;53.606;9.872;2022-12-29T08:03:58;11.00;99.90
13806;DHT22;6974;53.606;9.872;2022-12-29T08:06:26;11.00;99.90
13806;DHT22;6974;53.606;9.872;2022-12-29T08:08:55;10.90;99.90
13806;DHT22;6974;53.606;9.872;2022-12-29T08:11:23;10.90;99.90
13806;DHT22;6974;53.606;9.872;2022-12-29T08:13:50;10.90;99.90
13806;DHT22;6974;53.606;9.872;2022-12-29T08:16:17;10.90;99.90
13806;DHT22;6974;53.606;9.872;2022-12-29T08:18:44;10.90;99.90
13806;DHT22;6974;53.606;9.872;2022-12-29T08:21:11;11.00;99.90
13806;DHT22;6974;53.606;9.872;2022-12-29T08:23:40;11.00;99.90
13806;DHT22;6974;53.606;9.872;2022-12-29T08:26:07;11.10;99.90
13806;DHT22;6974;53.606;9.872;2022-12-29T08:28:34;11.00;99.90
13806;DHT22;6974;53.606;9.872;2022-12-29T08:31:02;11.00;99.90
13806;DHT22;6974;53.606;9.872;2022-12-29T08:33:30;11.00;99.90
13806;DHT22;6974;53.606;9.872;2022-12-29T08:36:01;10.90;99.90
13806;DHT22;6974;53.606;9.872;2022-12-29T08:38:28;10.90;99.90
13806;DHT22;6974;53.606;9.872;2022-12-29T08:40:58;10.90;99.90
13806;DHT22;6974;53.606;9.872;2022-12-29T08:43:27;10.90;99.90
13806;DHT22;6974;53.606;9.872;2022-12-29T08:45:56;10.90;99.90
13806;DHT22;6974;53.606;9.872;2022-12-29T08:48:24;10.90;99.90
13806;DHT22;6974;53.606;9.872;2022-12-29T08:50:51;11.00;99.90
13806;DHT22;6974;53.606;9.872;2022-12-29T08:53:18;11.00;99.90
13806;DHT22;6974;53.606;9.872;2022-12-29T08:55:46;11.00;99.90
13806;DHT22;6974;53.606;9.872;2022-12-29T08:58:15;10.90;99.90
13806;DHT22;6974;53.606;9.872;2022-12-29T09:00:43;11.00;99.90
13806;DHT22;6974;53.606;9.872;2022-12-29T09:03:11;11.00;99.90
13806;DHT22;6974;53.606;9.872;2022-12-29T09:05:38;11.00;99.90
13806;DHT22;6974;53.606;9.872;2022-12-29T09:08:05;11.00;99.90
13806;DHT22;6974;53.606;9.872;2022-12-29T09:10:32;11.10;99.90
13806;DHT22;6974;53.606;9.872;2022-12-29T09:12:59;11.10;99.90
13806;DHT22;6974;53.606;9.872;2022-12-29T09:15:28;11.10;99.90
13806;DHT22;6974;53.606;9.872;2022-12-29T09:17:55;11.10;99.90
13806;DHT22;6974;53.606;9.872;2022-12-29T09:20:22;11.10;99.90
13806;DHT22;6974;53.606;9.872;2022-12-29T09:22:49;11.00;99.90
13806;DHT22;6974;53.606;9.872;2022-12-29T09:25:17;11.10;99.90
13806;DHT22;6974;53.606;9.872;2022-12-29T09:27:45;11.10;99.90
13806;DHT22;6974;53.606;9.872;2022-12-29T09:30:13;11.10;99.90
13806;DHT22;6974;53.606;9.872;2022-12-29T09:32:42;11.20;99.90
13806;DHT22;6974;53.606;9.872;2022-12-29T09:35:11;11.20;99.90
13806;DHT22;6974;53.606;9.872;2022-12-29T09:37:39;11.10;99.90
13806;DHT22;6974;53.606;9.872;2022-12-29T09:40:09;11.30;99.90
13806;DHT22;6974;53.606;9.872;2022-12-29T09:42:45;11.20;99.90
13806;DHT22;6974;53.606;9.872;2022-12-29T09:45:17;11.20;99.90
13806;DHT22;6974;53.606;9.872;2022-12-29T09:47:47;11.10;99.90
13806;DHT22;6974;53.606;9.872;2022-12-29T09:50:20;11.20;99.90
13806;DHT22;6974;53.606;9.872;2022-12-29T09:52:54;11.20;99.90
13806;DHT22;6974;53.606;9.872;2022-12-29T09:55:24;11.30;99.90
13806;DHT22;6974;53.606;9.872;2022-12-29T09:57:56;11.20;99.90
13806;DHT22;6974;53.606;9.872;2022-12-29T10:00:33;11.20;99.90
13806;DHT22;6974;53.606;9.872;2022-12-29T10:03:09;11.20;99.90
13806;DHT22;6974;53.606;9.872;2022-12-29T10:05:47;11.20;99.90
13806;DHT22;6974;53.606;9.872;2022-12-29T10:08:26;11.20;99.90
13806;DHT22;6974;53.606;9.872;2022-12-29T10:10:59;11.30;99.90
13806;DHT22;6974;53.606;9.872;2022-12-29T10:13:34;11.30;99.90
13806;DHT22;6974;53.606;9.872;2022-12-29T10:16:09;11.30;99.90
13806;DHT22;6974;53.606;9.872;2022-12-29T10:19:07;11.20;99.90
13806;DHT22;6974;53.606;9.872;2022-12-29T10:21:49;11.20;99.90
13806;DHT22;6974;53.606;9.872;2022-12-29T10:24:21;11.20;99.90
13806;DHT22;6974;53.606;9.872;2022-12-29T10:26:51;11.20;99.90
13806;DHT22;6974;53.606;9.872;2022-12-29T10:29:22;11.20;99.90
13806;DHT22;6974;53.606;9.872;2022-12-29T10:31:54;11.20;99.90
13806;DHT22;6974;53.606;9.872;2022-12-29T10:34:26;11.10;99.90
13806;DHT22;6974;53.606;9.872;2022-12-29T10:37:00;11.10;99.90
13806;DHT22;6974;53.606;9.872;2022-12-29T10:39:33;11.10;99.90
13806;DHT22;6974;53.606;9.872;2022-12-29T10:42:09;11.10;99.90
13806;DHT22;6974;53.606;9.872;2022-12-29T10:44:38;11.20;99.90
13806;DHT22;6974;53.606;9.872;2022-12-29T10:47:10;11.30;99.90
13806;DHT22;6974;53.606;9.872;2022-12-29T10:49:41;11.30;99.90
13806;DHT22;6974;53.606;9.872;2022-12-29T10:52:09;11.30;99.90
13806;DHT22;6974;53.606;9.872;2022-12-29T10:54:42;11.50;99.90
13806;DHT22;6974;53.606;9.872;2022-12-29T10:57:20;11.50;99.90
13806;DHT22;6974;53.606;9.872;2022-12-29T10:59:50;11.50;99.90
13806;DHT22;6974;53.606;9.872;2022-12-29T11:02:35;11.50;99.90
13806;DHT22;6974;53.606;9.872;2022-12-29T11:05:10;11.40;99.90
13806;DHT22;6974;53.606;9.872;2022-12-29T11:07:42;11.40;99.90
13806;DHT22;6974;53.606;9.872;2022-12-29T11:10:18;11.50;99.90
13806;DHT22;6974;53.606;9.872;2022-12-29T11:12:58;11.50;99.90
13806;DHT22;6974;53.606;9.872;2022-12-29T11:15:26;11.60;99.90
13806;DHT22;6974;53.606;9.872;2022-12-29T11:17:57;11.70;99.90
13806;DHT22;6974;53.606;9.872;2022-12-29T11:20:35;11.80;99.90
13806;DHT22;6974;53.606;9.872;2022-12-29T11:23:04;11.80;99.90
13806;DHT22;6974;53.606;9.872;2022-12-29T11:25:32;11.80;99.90
13806;DHT22;6974;53.606;9.872;2022-12-29T11:28:01;11.70;99.90
13806;DHT22;6974;53.606;9.872;2022-12-29T11:30:31;11.70;99.90
13806;DHT22;6974;53.606;9.872;2022-12-29T11:32:58;11.60;99.90
13806;DHT22;6974;53.606;9.872;2022-12-29T11:35:34;11.60;99.90
13806;DHT22;6974;53.606;9.872;2022-12-29T11:38:02;11.60;99.90
13806;DHT22;6974;53.606;9.872;2022-12-29T11:40:29;11.50;99.90
13806;DHT22;6974;53.606;9.872;2022-12-29T11:42:59;11.50;99.90
13806;DHT22;6974;53.606;9.872;2022-12-29T11:45:31;11.40;99.90
13806;DHT22;6974;53.606;9.872;2022-12-29T11:48:01;11.50;99.90
13806;DHT22;6974;53.606;9.872;2022-12-29T11:50:37;11.50;99.90
13806;DHT22;6974;53.606;9.872;2022-12-29T11:53:13;11.50;99.90
13806;DHT22;6974;53.606;9.872;2022-12-29T11:55:51;11.40;99.90
13806;DHT22;6974;53.606;9.872;2022-12-29T11:58:20;11.40;99.90
13806;DHT22;6974;53.606;9.872;2022-12-29T12:00:49;11.40;99.90
13806;DHT22;6974;53.606;9.872;2022-12-29T12:03:21;11.50;99.90
13806;DHT22;6974;53.606;9.872;2022-12-29T12:05:54;11.40;99.90
13806;DHT22;6974;53.606;9.872;2022-12-29T12:08:31;11.40;99.90
13806;DHT22;6974;53.606;9.872;2022-12-29T12:11:06;11.40;99.90
13806;DHT22;6974;53.606;9.872;2022-12-29T12:13:37;11.40;99.90
13806;DHT22;6974;53.606;9.872;2022-12-29T12:16:09;11.40;99.90
13806;DHT22;6974;53.606;9.872;2022-12-29T12:18:41;11.40;99.90
13806;DHT22;6974;53.606;9.872;2022-12-29T12:21:20;11.40;99.90
13806;DHT22;6974;53.606;9.872;2022-12-29T12:24:00;11.40;99.90
13806;DHT22;6974;53.606;9.872;2022-12-29T12:26:35;11.40;99.90
13806;DHT22;6974;53.606;9.872;2022-12-29T12:29:10;11.20;99.90
13806;DHT22;6974;53.606;9.872;2022-12-29T12:31:44;11.30;99.90
13806;DHT22;6974;53.606;9.872;2022-12-29T12:34:17;11.40;99.90
13806;DHT22;6974;53.606;9.872;2022-12-29T12:37:02;11.30;99.90
13806;DHT22;6974;53.606;9.872;2022-12-29T12:39:39;11.30;99.90
13806;DHT22;6974;53.606;9.872;2022-12-29T12:42:23;11.30;99.90
13806;DHT22;6974;53.606;9.872;2022-12-29T12:45:04;11.30;99.90
13806;DHT22;6974;53.606;9.872;2022-12-29T12:47:43;11.30;99.90
13806;DHT22;6974;53.606;9.872;2022-12-29T12:50:31;11.30;99.90
13806;DHT22;6974;53.606;9.872;2022-12-29T12:53:17;11.30;99.90
13806;DHT22;6974;53.606;9.872;2022-12-29T12:56:03;11.30;99.90
13806;DHT22;6974;53.606;9.872;2022-12-29T12:58:38;11.30;99.90
13806;DHT22;6974;53.606;9.872;2022-12-29T13:01:15;11.30;99.90
13806;DHT22;6974;53.606;9.872;2022-12-29T13:03:53;11.30;99.90
13806;DHT22;6974;53.606;9.872;2022-12-29T13:06:34;11.30;99.90
13806;DHT22;6974;53.606;9.872;2022-12-29T13:09:29;11.30;99.90
13806;DHT22;6974;53.606;9.872;2022-12-29T13:12:10;11.30;99.90
13806;DHT22;6974;53.606;9.872;2022-12-29T13:14:51;11.30;99.90
13806;DHT22;6974;53.606;9.872;2022-12-29T13:17:24;11.30;99.90
13806;DHT22;6974;53.606;9.872;2022-12-29T13:19:59;11.30;99.90
13806;DHT22;6974;53.606;9.872;2022-12-29T13:22:32;11.30;99.90
13806;DHT22;6974;53.606;9.872;2022-12-29T13:25:23;11.20;99.90
13806;DHT22;6974;53.606;9.872;2022-12-29T13:27:54;11.10;99.90
13806;DHT22;6974;53.606;9.872;2022-12-29T13:30:28;11.10;99.90
13806;DHT22;6974;53.606;9.872;2022-12-29T13:33:05;11.00;99.90
13806;DHT22;6974;53.606;9.872;2022-12-29T13:35:43;10.90;99.90
13806;DHT22;6974;53.606;9.872;2022-12-29T13:38:13;10.80;99.90
13806;DHT22;6974;53.606;9.872;2022-12-29T13:40:47;10.80;99.90
13806;DHT22;6974;53.606;9.872;2022-12-29T13:43:16;10.80;99.90
13806;DHT22;6974;53.606;9.872;2022-12-29T13:45:45;10.70;99.90
13806;DHT22;6974;53.606;9.872;2022-12-29T13:48:18;10.60;99.90
13806;DHT22;6974;53.606;9.872;2022-12-29T13:50:53;10.60;99.90
13806;DHT22;6974;53.606;9.872;2022-12-29T13:53:29;10.60;99.90
13806;DHT22;6974;53.606;9.872;2022-12-29T13:56:06;10.60;99.90
13806;DHT22;6974;53.606;9.872;2022-12-29T13:58:39;10.50;99.90
13806;DHT22;6974;53.606;9.872;2022-12-29T14:01:12;10.30;99.90
13806;DHT22;6974;53.606;9.872;2022-12-29T14:03:48;10.10;99.90
13806;DHT22;6974;53.606;9.872;2022-12-29T14:06:23;10.00;99.90
13806;DHT22;6974;53.606;9.872;2022-12-29T14:08:54;9.90;99.90
13806;DHT22;6974;53.606;9.872;2022-12-29T14:11:28;9.90;99.90
13806;DHT22;6974;53.606;9.872;2022-12-29T14:13:56;9.70;99.90
13806;DHT22;6974;53.606;9.872;2022-12-29T14:16:29;9.70;99.90
13806;DHT22;6974;53.606;9.872;2022-12-29T14:19:03;9.60;99.90
13806;DHT22;6974;53.606;9.872;2022-12-29T14:21:32;9.60;99.90
13806;DHT22;6974;53.606;9.872;2022-12-29T14:24:32;9.60;99.90
13806;DHT22;6974;53.606;9.872;2022-12-29T14:30:46;9.50;99.90
13806;DHT22;6974;53.606;9.872;2022-12-29T14:33:13;9.60;99.90
13806;DHT22;6974;53.606;9.872;2022-12-29T14:35:43;9.50;99.90
13806;DHT22;6974;53.606;9.872;2022-12-29T14:38:22;9.40;99.90
13806;DHT22;6974;53.606;9.872;2022-12-29T14:40:50;9.50;99.90
13806;DHT22;6974;53.606;9.872;2022-12-29T14:43:27;9.50;99.90
13806;DHT22;6974;53.606;9.872;2022-12-29T14:45:58;9.50;99.90
13806;DHT22;6974;53.606;9.872;2022-12-29T14:48:33;9.50;99.90
13806;DHT22;6974;53.606;9.872;2022-12-29T14:51:02;9.60;99.90
13806;DHT22;6974;53.606;9.872;2022-12-29T14:53:46;9.60;99.90
13806;DHT22;6974;53.606;9.872;2022-12-29T14:56:15;9.60;99.90
13806;DHT22;6974;53.606;9.872;2022-12-29T14:58:49;9.60;99.90
13806;DHT22;6974;53.606;9.872;2022-12-29T15:01:31;9.60;99.90
13806;DHT22;6974;53.606;9.872;2022-12-29T15:04:05;9.60;99.90
13806;DHT22;6974;53.606;9.872;2022-12-29T15:06:36;9.60;99.90
13806;DHT22;6974;53.606;9.872;2022-12-29T15:09:12;9.60;99.90
13806;DHT22;6974;53.606;9.872;2022-12-29T15:11:48;9.60;99.90
13806;DHT22;6974;53.606;9.872;2022-12-29T15:14:34;9.60;99.90
13806;DHT22;6974;53.606;9.872;2022-12-29T15:17:11;9.60;99.90
13806;DHT22;6974;53.606;9.872;2022-12-29T15:19:48;9.50;99.90
13806;DHT22;6974;53.606;9.872;2022-12-29T15:22:15;9.50;99.90
13806;DHT22;6974;53.606;9.872;2022-12-29T15:24:42;9.50;99.90
13806;DHT22;6974;53.606;9.872;2022-12-29T15:27:14;9.50;99.90
13806;DHT22;6974;53.606;9.872;2022-12-29T15:29:43;9.60;99.90
13806;DHT22;6974;53.606;9.872;2022-12-29T15:32:20;9.60;99.90
13806;DHT22;6974;53.606;9.872;2022-12-29T15:34:49;9.60;99.90
13806;DHT22;6974;53.606;9.872;2022-12-29T15:37:22;9.60;99.90
13806;DHT22;6974;53.606;9.872;2022-12-29T15:39:49;9.60;99.90
13806;DHT22;6974;53.606;9.872;2022-12-29T15:42:29;9.60;99.90
13806;DHT22;6974;53.606;9.872;2022-12-29T15:44:58;9.70;99.90
13806;DHT22;6974;53.606;9.872;2022-12-29T15:47:30;9.60;99.90
13806;DHT22;6974;53.606;9.872;2022-12-29T15:50:02;9.60;99.90
13806;DHT22;6974;53.606;9.872;2022-12-29T15:52:32;9.60;99.90
13806;DHT22;6974;53.606;9.872;2022-12-29T15:55:00;9.60;99.90
13806;DHT22;6974;53.606;9.872;2022-12-29T15:57:29;9.60;99.90
13806;DHT22;6974;53.606;9.872;2022-12-29T15:59:58;9.60;99.90
13806;DHT22;6974;53.606;9.872;2022-12-29T16:02:26;9.60;99.90
13806;DHT22;6974;53.606;9.872;2022-12-29T16:04:55;9.60;99.90
13806;DHT22;6974;53.606;9.872;2022-12-29T16:07:25;9.60;99.90
13806;DHT22;6974;53.606;9.872;2022-12-29T16:09:55;9.60;99.90
13806;DHT22;6974;53.606;9.872;2022-12-29T16:12:25;9.60;99.90
13806;DHT22;6974;53.606;9.872;2022-12-29T16:14:55;9.50;99.90
13806;DHT22;6974;53.606;9.872;2022-12-29T16:17:25;9.60;99.90
13806;DHT22;6974;53.606;9.872;2022-12-29T16:19:56;9.60;99.90
13806;DHT22;6974;53.606;9.872;2022-12-29T16:22:28;9.60;99.90
13806;DHT22;6974;53.606;9.872;2022-12-29T16:24:57;9.50;99.90
13806;DHT22;6974;53.606;9.872;2022-12-29T16:27:31;9.50;99.90
13806;DHT22;6974;53.606;9.872;2022-12-29T16:30:04;9.50;99.90